createdAt,value
2023-01-13T00:00:44.578Z,-1.41
2023-01-13T00:03:50.475Z,-1.45
2023-01-13T00:06:53.309Z,-1.29
2023-01-13T00:09:56.018Z,-1.35
2023-01-13T00:12:58.800Z,-1.36
2023-01-13T00:16:08.147Z,-1.35
2023-01-13T00:19:11.370Z,-1.42
2023-01-13T00:22:14.228Z,-1.48
2023-01-13T00:25:17.260Z,-1.45
2023-01-13T00:28:20.107Z,-1.38
2023-01-13T00:31:23.030Z,-1.23
2023-01-13T00:34:26.035Z,-1.27
2023-01-13T00:37:28.942Z,-1.24
2023-01-13T00:40:32.051Z,-1.26
2023-01-13T00:43:36.777Z,-1.23
2023-01-13T00:46:39.800Z,-1.18
2023-01-13T00:49:42.761Z,-1.19
2023-01-13T00:52:45.703Z,-1.16
2023-01-13T00:55:48.622Z,-1.08
2023-01-13T00:58:57.193Z,-1.05
2023-01-13T01:02:00.192Z,-1.00
2023-01-13T01:05:03.414Z,-0.87
2023-01-13T01:08:06.411Z,-0.85
2023-01-13T01:11:13.376Z,-0.79
2023-01-13T01:14:16.207Z,-0.92
2023-01-13T01:17:19.114Z,-0.85
2023-01-13T01:20:22.362Z,-0.91
2023-01-13T01:23:25.241Z,-0.88
2023-01-13T01:26:30.112Z,-0.91
2023-01-13T01:29:32.952Z,-1.11
2023-01-13T01:32:35.860Z,-1.14
2023-01-13T01:35:41.740Z,-1.23
2023-01-13T01:38:45.266Z,-1.22
2023-01-13T01:42:14.136Z,-1.19
2023-01-13T01:45:22.743Z,-1.18
2023-01-13T01:48:27.923Z,-1.21
2023-01-13T01:51:35.574Z,-1.10
2023-01-13T01:54:48.713Z,-0.86
2023-01-13T01:58:18.483Z,-1.03
2023-01-13T02:01:21.924Z,-0.92
2023-01-13T02:04:30.763Z,-0.86
2023-01-13T02:07:35.899Z,-0.83
2023-01-13T02:10:41.136Z,-0.86
2023-01-13T02:13:44.163Z,-0.94
2023-01-13T02:17:23.111Z,-0.86
2023-01-13T02:20:36.347Z,-0.75
2023-01-13T02:23:57.779Z,-0.67
2023-01-13T02:27:34.781Z,-0.66
2023-01-13T02:31:10.636Z,-0.77
2023-01-13T02:34:39.841Z,-0.91
2023-01-13T02:37:44.806Z,-0.93
2023-01-13T02:40:58.666Z,-1.05
2023-01-13T02:44:07.539Z,-1.04
2023-01-13T02:47:20.524Z,-1.05
2023-01-13T02:50:29.720Z,-1.02
2023-01-13T02:53:53.865Z,-1.02
2023-01-13T02:56:58.313Z,-1.01
2023-01-13T03:00:02.731Z,-1.09
2023-01-13T03:03:09.213Z,-0.98
2023-01-13T03:06:14.990Z,-0.78
2023-01-13T03:09:38.626Z,-0.79
2023-01-13T03:13:02.665Z,-0.71
2023-01-13T03:16:09.943Z,-0.54
2023-01-13T03:19:39.187Z,-0.60
2023-01-13T03:23:00.747Z,-0.77
2023-01-13T03:26:13.750Z,-0.75
2023-01-13T03:29:40.622Z,-0.76
2023-01-13T03:32:49.532Z,-0.79
2023-01-13T03:35:57.326Z,-0.61
2023-01-13T03:39:06.745Z,-0.72
2023-01-13T03:42:15.698Z,-0.61
2023-01-13T03:45:20.416Z,-0.51
2023-01-13T03:48:26.794Z,-0.46
2023-01-13T03:51:33.285Z,-0.47
2023-01-13T03:54:44.948Z,-0.49
2023-01-13T03:58:03.958Z,-0.54
2023-01-13T04:01:39.069Z,-0.69
2023-01-13T04:04:59.139Z,-0.73
2023-01-13T04:08:09.303Z,-0.71
2023-01-13T04:11:21.819Z,-0.70
2023-01-13T04:14:27.913Z,-0.72
2023-01-13T04:17:32.373Z,-0.77
2023-01-13T04:20:35.701Z,-0.77
2023-01-13T04:23:38.668Z,-0.80
2023-01-13T04:26:41.832Z,-0.85
2023-01-13T04:29:45.283Z,-0.81
2023-01-13T04:32:48.426Z,-0.80
2023-01-13T04:35:52.879Z,-0.82
2023-01-13T04:38:56.242Z,-0.89
2023-01-13T04:41:59.470Z,-1.05
2023-01-13T04:45:02.606Z,-1.11
2023-01-13T04:48:06.831Z,-1.13
2023-01-13T04:51:09.888Z,-1.08
2023-01-13T04:54:12.905Z,-1.10
2023-01-13T04:57:16.257Z,-1.04
2023-01-13T05:00:22.844Z,-0.92
2023-01-13T05:03:27.148Z,-1.05
2023-01-13T05:06:30.493Z,-1.08
2023-01-13T05:09:33.745Z,-1.22
2023-01-13T05:12:55.380Z,-1.18
2023-01-13T05:16:19.232Z,-1.25
2023-01-13T05:19:22.388Z,-1.29
2023-01-13T05:22:48.280Z,-1.21
2023-01-13T05:25:51.545Z,-1.26
2023-01-13T05:28:54.672Z,-1.28
2023-01-13T05:31:57.967Z,-1.27
2023-01-13T05:35:01.026Z,-1.24
2023-01-13T05:38:04.073Z,-1.19
2023-01-13T05:41:26.604Z,-1.25
2023-01-13T05:44:29.687Z,-1.24
2023-01-13T05:47:33.794Z,-1.14
2023-01-13T05:50:36.778Z,-1.14
2023-01-13T05:53:42.978Z,-1.02
2023-01-13T05:56:45.955Z,-0.85
2023-01-13T05:59:53.719Z,-0.82
2023-01-13T06:02:57.092Z,-0.76
2023-01-13T06:06:02.021Z,-0.73
2023-01-13T06:09:04.917Z,-0.69
2023-01-13T06:12:07.897Z,-0.66
2023-01-13T06:15:11.042Z,-0.55
2023-01-13T06:18:14.172Z,-0.47
2023-01-13T06:21:16.959Z,-0.50
2023-01-13T06:24:22.682Z,-0.59
2023-01-13T06:27:29.097Z,-0.57
2023-01-13T06:30:40.339Z,-0.57
2023-01-13T06:33:49.201Z,-0.48
2023-01-13T06:38:07.700Z,-0.41
2023-01-13T06:41:10.931Z,-0.25
2023-01-13T06:44:14.144Z,-0.25
2023-01-13T06:47:18.677Z,-0.27
2023-01-13T06:50:30.773Z,-0.31
2023-01-13T06:53:33.963Z,-0.33
2023-01-13T06:56:36.769Z,-0.37
2023-01-13T06:59:40.194Z,-0.47
2023-01-13T07:02:43.689Z,-0.55
2023-01-13T07:05:56.363Z,-0.44
2023-01-13T07:08:59.293Z,-0.26
2023-01-13T07:12:02.744Z,-0.24
2023-01-13T07:15:19.693Z,-0.27
2023-01-13T07:18:22.715Z,-0.26
2023-01-13T07:21:25.723Z,-0.32
2023-01-13T07:24:28.740Z,-0.43
2023-01-13T07:27:31.709Z,-0.42
2023-01-13T07:30:39.358Z,-0.24
2023-01-13T07:33:43.072Z,-0.03
2023-01-13T07:36:48.213Z,0.12
2023-01-13T07:39:51.123Z,0.30
2023-01-13T07:43:12.789Z,0.39
2023-01-13T07:46:17.197Z,0.55
2023-01-13T07:49:20.076Z,0.40
2023-01-13T07:52:33.070Z,0.76
2023-01-13T07:55:35.947Z,0.85
2023-01-13T07:58:39.139Z,1.08
2023-01-13T08:01:43.695Z,1.64
2023-01-13T08:04:47.090Z,2.06
2023-01-13T08:07:50.304Z,2.13
2023-01-13T08:10:54.207Z,3.74
2023-01-13T08:13:59.184Z,5.52
2023-01-13T08:17:01.922Z,7.96
2023-01-13T08:20:06.326Z,8.71
2023-01-13T08:23:09.473Z,9.68
2023-01-13T08:26:17.968Z,9.04
2023-01-13T08:29:23.859Z,9.94
2023-01-13T08:32:31.480Z,9.69
2023-01-13T08:35:38.970Z,9.74
2023-01-13T08:38:42.577Z,8.97
2023-01-13T08:41:58.592Z,7.91
2023-01-13T08:45:01.477Z,7.35
2023-01-13T08:48:05.187Z,6.85
2023-01-13T08:51:09.938Z,6.24
2023-01-13T08:54:13.296Z,6.39
2023-01-13T08:57:20.108Z,6.35
2023-01-13T09:00:24.369Z,6.46
2023-01-13T09:03:27.317Z,6.67
2023-01-13T09:06:30.237Z,7.21
2023-01-13T09:09:34.115Z,7.54
2023-01-13T09:12:55.462Z,7.35
2023-01-13T09:15:58.539Z,7.65
2023-01-13T09:19:02.441Z,7.63
2023-01-13T09:22:05.363Z,7.62
2023-01-13T09:25:12.871Z,7.08
2023-01-13T09:28:16.687Z,6.56
2023-01-13T09:31:20.137Z,6.44
2023-01-13T09:34:41.818Z,6.09
2023-01-13T09:37:44.869Z,5.95
2023-01-13T09:40:49.185Z,5.28
2023-01-13T09:43:58.063Z,5.58
2023-01-13T09:47:06.983Z,5.46
2023-01-13T09:50:24.327Z,5.46
2023-01-13T09:53:37.208Z,5.33
2023-01-13T09:56:40.306Z,5.13
2023-01-13T09:59:44.075Z,5.44
2023-01-13T10:02:52.894Z,5.02
2023-01-13T10:06:11.512Z,5.09
2023-01-13T10:09:29.704Z,5.31
2023-01-13T10:12:55.431Z,5.40
2023-01-13T10:16:11.451Z,5.45
2023-01-13T10:19:20.656Z,5.56
2023-01-13T10:22:52.206Z,5.50
2023-01-13T10:26:15.054Z,5.78
2023-01-13T10:29:27.047Z,5.82
2023-01-13T10:32:30.820Z,6.07
2023-01-13T10:36:18.247Z,6.29
2023-01-13T10:39:21.437Z,6.36
2023-01-13T10:42:25.603Z,6.12
2023-01-13T10:45:28.440Z,6.24
2023-01-13T10:48:38.178Z,6.27
2023-01-13T10:51:41.613Z,6.64
2023-01-13T10:54:53.894Z,6.86
2023-01-13T10:57:57.059Z,7.26
2023-01-13T11:01:18.227Z,7.75
2023-01-13T11:04:38.529Z,8.14
2023-01-13T11:07:50.261Z,8.31
2023-01-13T11:10:57.048Z,9.01
2023-01-13T11:14:23.682Z,9.36
2023-01-13T11:17:40.746Z,9.87
2023-01-13T11:20:56.835Z,11.61
2023-01-13T11:24:21.164Z,14.46
2023-01-13T11:27:45.373Z,16.76
2023-01-13T11:31:02.253Z,18.74
2023-01-13T11:34:11.031Z,19.11
2023-01-13T11:37:37.589Z,19.92
2023-01-13T11:40:46.276Z,19.07
2023-01-13T11:43:52.278Z,18.92
2023-01-13T11:46:55.642Z,16.59
2023-01-13T11:50:01.375Z,14.39
2023-01-13T11:53:10.650Z,13.58
2023-01-13T11:57:13.976Z,13.81
2023-01-13T12:01:10.230Z,14.57
2023-01-13T12:04:51.952Z,14.78
2023-01-13T12:08:12.536Z,15.61
2023-01-13T12:11:24.723Z,16.52
2023-01-13T12:14:36.777Z,16.92
2023-01-13T12:18:04.515Z,16.03
2023-01-13T12:21:17.846Z,16.79
2023-01-13T12:24:30.099Z,16.78
2023-01-13T12:27:48.125Z,16.76
2023-01-13T12:31:02.406Z,16.04
2023-01-13T12:34:16.313Z,15.48
2023-01-13T12:37:27.706Z,15.50
2023-01-13T12:41:00.707Z,15.29
2023-01-13T12:44:22.181Z,13.43
2023-01-13T12:47:40.224Z,14.97
2023-01-13T12:50:44.675Z,15.04
2023-01-13T12:53:48.166Z,13.46
2023-01-13T12:56:51.379Z,14.13
2023-01-13T12:59:59.955Z,13.72
2023-01-13T13:03:12.468Z,13.50
2023-01-13T13:06:24.223Z,12.05
2023-01-13T13:09:33.955Z,11.21
2023-01-13T13:13:01.421Z,9.93
2023-01-13T13:16:50.496Z,9.83
2023-01-13T13:19:53.928Z,10.03
2023-01-13T13:22:56.752Z,9.79
2023-01-13T13:26:03.615Z,9.72
2023-01-13T13:29:26.011Z,9.55
2023-01-13T13:32:45.704Z,9.47
2023-01-13T13:35:52.131Z,9.33
2023-01-13T13:39:24.673Z,9.34
2023-01-13T13:42:35.887Z,8.65
2023-01-13T13:46:12.737Z,8.64
2023-01-13T13:49:21.572Z,8.74
2023-01-13T13:52:27.929Z,8.92
2023-01-13T13:55:31.462Z,8.85
2023-01-13T13:58:37.326Z,8.76
2023-01-13T14:01:43.355Z,8.92
2023-01-13T14:04:46.351Z,8.68
2023-01-13T14:07:52.649Z,8.63
2023-01-13T14:10:56.108Z,8.53
2023-01-13T14:14:07.333Z,8.44
2023-01-13T14:17:36.489Z,8.28
2023-01-13T14:20:40.797Z,8.31
2023-01-13T14:23:54.950Z,7.90
2023-01-13T14:27:15.407Z,7.81
2023-01-13T14:30:19.892Z,7.85
2023-01-13T14:33:38.859Z,7.52
2023-01-13T14:36:42.232Z,7.36
2023-01-13T14:39:45.038Z,7.35
2023-01-13T14:43:03.678Z,7.31
2023-01-13T14:46:06.691Z,7.08
2023-01-13T14:49:40.500Z,6.99
2023-01-13T14:52:55.829Z,6.84
2023-01-13T14:55:59.251Z,6.80
2023-01-13T14:59:40.996Z,6.88
2023-01-13T15:02:53.690Z,6.70
2023-01-13T15:05:56.659Z,6.66
2023-01-13T15:08:59.930Z,6.62
2023-01-13T15:12:16.202Z,6.59
2023-01-13T15:15:27.146Z,6.52
2023-01-13T15:18:30.587Z,6.50
2023-01-13T15:21:34.460Z,6.51
2023-01-13T15:24:37.254Z,6.51
2023-01-13T15:27:40.236Z,6.39
2023-01-13T15:30:43.373Z,6.30
2023-01-13T15:33:46.398Z,6.29
2023-01-13T15:36:49.140Z,6.18
2023-01-13T15:39:52.046Z,6.14
2023-01-13T15:43:13.403Z,6.12
2023-01-13T15:46:36.647Z,6.08
2023-01-13T15:49:45.322Z,5.91
2023-01-13T15:52:48.169Z,5.84
2023-01-13T15:55:54.882Z,5.87
2023-01-13T15:58:57.684Z,5.78
2023-01-13T16:02:00.468Z,5.70
2023-01-13T16:05:04.120Z,5.63
2023-01-13T16:08:15.481Z,5.67
2023-01-13T16:11:18.402Z,5.59
2023-01-13T16:14:21.470Z,5.50
2023-01-13T16:17:29.301Z,5.35
2023-01-13T16:20:33.087Z,5.22
2023-01-13T16:23:35.885Z,5.12
2023-01-13T16:26:39.257Z,5.10
2023-01-13T16:29:43.050Z,4.96
2023-01-13T16:32:45.959Z,4.91
2023-01-13T16:36:10.484Z,4.83
2023-01-13T16:39:22.546Z,4.68
2023-01-13T16:42:25.309Z,4.60
2023-01-13T16:45:28.390Z,4.66
2023-01-13T16:48:31.240Z,4.64
2023-01-13T16:51:34.108Z,4.62
2023-01-13T16:54:37.259Z,4.54
2023-01-13T16:57:40.208Z,4.53
2023-01-13T17:00:43.219Z,4.54
2023-01-13T17:03:49.315Z,4.49
2023-01-13T17:07:00.356Z,4.52
2023-01-13T17:10:04.002Z,4.53
2023-01-13T17:13:15.542Z,4.55
2023-01-13T17:16:22.003Z,4.50
2023-01-13T17:19:25.777Z,4.41
2023-01-13T17:22:28.615Z,4.33
2023-01-13T17:25:31.446Z,4.24
2023-01-13T17:28:34.510Z,4.12
2023-01-13T17:31:37.635Z,4.24
2023-01-13T17:34:40.433Z,4.33
2023-01-13T17:37:43.277Z,4.33
2023-01-13T17:40:46.150Z,4.29
2023-01-13T17:43:49.178Z,4.18
2023-01-13T17:46:52.055Z,4.10
2023-01-13T17:49:54.907Z,4.09
2023-01-13T17:52:57.765Z,4.05
2023-01-13T17:56:00.709Z,4.18
2023-01-13T17:59:03.745Z,4.26
2023-01-13T18:02:06.998Z,4.32
2023-01-13T18:05:10.141Z,4.44
2023-01-13T18:08:12.980Z,4.41
2023-01-13T18:11:19.048Z,4.44
2023-01-13T18:14:23.260Z,4.41
2023-01-13T18:17:26.134Z,4.42
2023-01-13T18:20:49.044Z,4.41
2023-01-13T18:24:10.956Z,4.38
2023-01-13T18:27:24.056Z,4.42
2023-01-13T18:30:29.005Z,4.40
2023-01-13T18:33:32.154Z,4.48
2023-01-13T18:36:34.935Z,4.49
2023-01-13T18:39:37.772Z,4.46
2023-01-13T18:42:56.421Z,4.54
2023-01-13T18:45:59.458Z,4.51
2023-01-13T18:49:03.043Z,4.43
2023-01-13T18:52:05.913Z,4.47
2023-01-13T18:55:09.328Z,4.47
2023-01-13T18:58:12.265Z,4.43
2023-01-13T19:01:15.278Z,4.40
2023-01-13T19:04:18.535Z,4.46
2023-01-13T19:07:27.460Z,4.44
2023-01-13T19:10:32.891Z,4.41
2023-01-13T19:13:36.481Z,4.33
2023-01-13T19:16:39.601Z,4.34
2023-01-13T19:19:48.564Z,4.30
2023-01-13T19:22:54.617Z,4.33
2023-01-13T19:26:05.684Z,4.38
2023-01-13T19:29:09.039Z,4.41
2023-01-13T19:32:13.014Z,4.29
2023-01-13T19:35:18.246Z,4.27
2023-01-13T19:38:21.935Z,4.33
2023-01-13T19:41:43.804Z,4.28
2023-01-13T19:45:05.479Z,4.20
2023-01-13T19:48:08.681Z,4.19
2023-01-13T19:51:14.590Z,4.18
2023-01-13T19:54:17.757Z,4.19
2023-01-13T19:57:21.134Z,4.24
2023-01-13T20:00:24.376Z,4.26
2023-01-13T20:03:31.159Z,4.26
2023-01-13T20:06:34.092Z,4.34
2023-01-13T20:09:37.235Z,4.28
2023-01-13T20:12:40.146Z,4.27
2023-01-13T20:15:44.120Z,4.27
2023-01-13T20:18:50.709Z,4.28
2023-01-13T20:21:53.551Z,4.29
2023-01-13T20:24:57.102Z,4.24
2023-01-13T20:28:02.159Z,4.16
2023-01-13T20:31:10.453Z,4.21
2023-01-13T20:34:14.736Z,4.19
2023-01-13T20:37:17.656Z,4.16
2023-01-13T20:40:21.284Z,4.27
2023-01-13T20:43:24.040Z,4.24
2023-01-13T20:46:27.403Z,4.19
2023-01-13T20:49:31.140Z,4.14
2023-01-13T20:52:33.993Z,4.04
2023-01-13T20:55:40.086Z,4.06
2023-01-13T20:58:44.916Z,4.05
2023-01-13T21:01:48.042Z,4.04
2023-01-13T21:04:51.145Z,4.06
2023-01-13T21:07:54.872Z,4.15
2023-01-13T21:11:04.599Z,4.15
2023-01-13T21:14:33.162Z,4.21
2023-01-13T21:17:55.147Z,4.10
2023-01-13T21:21:11.827Z,4.07
2023-01-13T21:24:14.652Z,4.11
2023-01-13T21:27:18.023Z,4.07
2023-01-13T21:30:21.296Z,3.95
2023-01-13T21:33:24.492Z,3.95
2023-01-13T21:36:28.196Z,3.96
2023-01-13T21:39:31.081Z,4.05
2023-01-13T21:42:52.387Z,3.99
2023-01-13T21:46:13.711Z,4.01
2023-01-13T21:49:18.535Z,3.96
2023-01-13T21:52:25.455Z,4.04
2023-01-13T21:55:31.967Z,4.14
2023-01-13T21:58:34.820Z,4.10
2023-01-13T22:01:57.090Z,3.97
2023-01-13T22:05:02.195Z,4.01
2023-01-13T22:08:06.014Z,4.01
2023-01-13T22:11:08.899Z,4.00
2023-01-13T22:14:14.008Z,4.00
2023-01-13T22:17:17.821Z,4.03
2023-01-13T22:20:22.879Z,4.02
2023-01-13T22:23:26.134Z,3.97
2023-01-13T22:26:29.558Z,3.92
2023-01-13T22:29:32.345Z,3.95
2023-01-13T22:32:38.487Z,3.94
2023-01-13T22:35:41.267Z,3.94
2023-01-13T22:38:44.883Z,3.91
2023-01-13T22:41:47.933Z,3.97
2023-01-13T22:44:50.936Z,4.01
2023-01-13T22:47:53.745Z,3.90
2023-01-13T22:50:56.836Z,4.00
2023-01-13T22:53:59.772Z,3.96
2023-01-13T22:57:02.509Z,4.01
2023-01-13T23:00:05.965Z,4.03
2023-01-13T23:03:09.766Z,3.95
2023-01-13T23:06:12.746Z,3.84
2023-01-13T23:09:15.794Z,3.78
2023-01-13T23:12:18.699Z,3.72
2023-01-13T23:15:21.500Z,3.68
2023-01-13T23:18:26.597Z,3.75
2023-01-13T23:21:32.813Z,3.82
2023-01-13T23:24:35.566Z,3.76
2023-01-13T23:27:38.511Z,3.72
2023-01-13T23:30:42.787Z,3.80
2023-01-13T23:33:46.418Z,3.84
2023-01-13T23:36:49.355Z,3.79
2023-01-13T23:39:52.315Z,3.79
2023-01-13T23:42:55.115Z,3.80
2023-01-13T23:46:02.916Z,3.78
2023-01-13T23:49:05.852Z,3.88
2023-01-13T23:52:08.817Z,3.92
2023-01-13T23:55:11.689Z,3.96
2023-01-13T23:58:14.636Z,3.95
